sensor_id;sensor_type;location;lat;lon;timestamp;P1;durP1;ratioP1;P2;durP2;ratioP2
44885;SDS011;36669;51.428;21.162;2022-11-12T00:00:55;30.23;;;16.45;;
44885;SDS011;36669;51.428;21.162;2022-11-12T00:03:20;26.88;;;16.65;;
44885;SDS011;36669;51.428;21.162;2022-11-12T00:05:46;30.35;;;16.23;;
44885;SDS011;36669;51.428;21.162;2022-11-12T00:08:12;30.58;;;15.60;;
44885;SDS011;36669;51.428;21.162;2022-11-12T00:10:38;29.08;;;16.73;;
44885;SDS011;36669;51.428;21.162;2022-11-12T00:13:03;32.00;;;16.98;;
44885;SDS011;36669;51.428;21.162;2022-11-12T00:15:29;31.33;;;16.92;;
44885;SDS011;36669;51.428;21.162;2022-11-12T00:17:54;35.33;;;16.10;;
44885;SDS011;36669;51.428;21.162;2022-11-12T00:20:20;31.30;;;14.68;;
44885;SDS011;36669;51.428;21.162;2022-11-12T00:22:45;26.50;;;15.23;;
44885;SDS011;36669;51.428;21.162;2022-11-12T00:25:11;27.38;;;15.68;;
44885;SDS011;36669;51.428;21.162;2022-11-12T00:27:36;29.42;;;15.82;;
44885;SDS011;36669;51.428;21.162;2022-11-12T00:30:02;31.20;;;16.25;;
44885;SDS011;36669;51.428;21.162;2022-11-12T00:32:29;31.77;;;16.25;;
44885;SDS011;36669;51.428;21.162;2022-11-12T00:34:55;28.17;;;15.35;;
44885;SDS011;36669;51.428;21.162;2022-11-12T00:37:21;29.08;;;15.23;;
44885;SDS011;36669;51.428;21.162;2022-11-12T00:39:46;29.83;;;15.38;;
44885;SDS011;36669;51.428;21.162;2022-11-12T00:42:12;27.95;;;16.40;;
44885;SDS011;36669;51.428;21.162;2022-11-12T00:44:38;29.58;;;15.68;;
44885;SDS011;36669;51.428;21.162;2022-11-12T00:47:03;34.30;;;15.25;;
44885;SDS011;36669;51.428;21.162;2022-11-12T00:49:29;25.35;;;14.07;;
44885;SDS011;36669;51.428;21.162;2022-11-12T00:51:54;24.08;;;14.10;;
44885;SDS011;36669;51.428;21.162;2022-11-12T00:54:20;24.55;;;13.02;;
44885;SDS011;36669;51.428;21.162;2022-11-12T00:56:46;29.90;;;13.55;;
44885;SDS011;36669;51.428;21.162;2022-11-12T00:59:13;25.17;;;12.90;;
44885;SDS011;36669;51.428;21.162;2022-11-12T01:01:39;28.58;;;12.98;;
44885;SDS011;36669;51.428;21.162;2022-11-12T01:04:06;26.13;;;13.75;;
44885;SDS011;36669;51.428;21.162;2022-11-12T01:06:31;22.50;;;12.48;;
44885;SDS011;36669;51.428;21.162;2022-11-12T01:08:57;28.02;;;12.65;;
44885;SDS011;36669;51.428;21.162;2022-11-12T01:11:24;23.73;;;12.82;;
44885;SDS011;36669;51.428;21.162;2022-11-12T01:13:55;21.50;;;13.23;;
44885;SDS011;36669;51.428;21.162;2022-11-12T01:16:26;26.00;;;13.30;;
44885;SDS011;36669;51.428;21.162;2022-11-12T01:18:55;30.33;;;14.20;;
44885;SDS011;36669;51.428;21.162;2022-11-12T01:21:25;31.08;;;14.07;;
44885;SDS011;36669;51.428;21.162;2022-11-12T01:23:52;28.30;;;12.68;;
44885;SDS011;36669;51.428;21.162;2022-11-12T01:26:19;31.90;;;12.90;;
44885;SDS011;36669;51.428;21.162;2022-11-12T01:28:47;27.10;;;13.48;;
44885;SDS011;36669;51.428;21.162;2022-11-12T01:31:14;25.40;;;13.85;;
44885;SDS011;36669;51.428;21.162;2022-11-12T01:33:41;23.80;;;12.73;;
44885;SDS011;36669;51.428;21.162;2022-11-12T01:36:11;26.33;;;13.77;;
44885;SDS011;36669;51.428;21.162;2022-11-12T01:38:39;26.88;;;14.32;;
44885;SDS011;36669;51.428;21.162;2022-11-12T01:41:10;31.50;;;14.43;;
44885;SDS011;36669;51.428;21.162;2022-11-12T01:43:42;26.63;;;12.73;;
44885;SDS011;36669;51.428;21.162;2022-11-12T01:46:13;24.65;;;14.32;;
44885;SDS011;36669;51.428;21.162;2022-11-12T01:48:56;27.95;;;13.50;;
44885;SDS011;36669;51.428;21.162;2022-11-12T01:51:26;29.23;;;14.43;;
44885;SDS011;36669;51.428;21.162;2022-11-12T01:53:57;28.08;;;13.77;;
44885;SDS011;36669;51.428;21.162;2022-11-12T01:56:26;26.33;;;13.50;;
44885;SDS011;36669;51.428;21.162;2022-11-12T01:58:55;26.75;;;15.27;;
44885;SDS011;36669;51.428;21.162;2022-11-12T02:01:26;28.25;;;14.02;;
44885;SDS011;36669;51.428;21.162;2022-11-12T02:03:51;29.67;;;14.88;;
44885;SDS011;36669;51.428;21.162;2022-11-12T02:06:17;27.65;;;13.73;;
44885;SDS011;36669;51.428;21.162;2022-11-12T02:08:44;29.50;;;14.65;;
44885;SDS011;36669;51.428;21.162;2022-11-12T02:11:14;27.88;;;14.25;;
44885;SDS011;36669;51.428;21.162;2022-11-12T02:13:42;23.58;;;13.27;;
44885;SDS011;36669;51.428;21.162;2022-11-12T02:16:09;34.55;;;15.07;;
44885;SDS011;36669;51.428;21.162;2022-11-12T02:18:35;26.60;;;12.68;;
44885;SDS011;36669;51.428;21.162;2022-11-12T02:21:04;32.78;;;15.30;;
44885;SDS011;36669;51.428;21.162;2022-11-12T02:23:33;29.33;;;13.48;;
44885;SDS011;36669;51.428;21.162;2022-11-12T02:25:59;27.55;;;15.13;;
44885;SDS011;36669;51.428;21.162;2022-11-12T02:28:25;34.10;;;14.55;;
44885;SDS011;36669;51.428;21.162;2022-11-12T02:30:52;25.45;;;13.02;;
44885;SDS011;36669;51.428;21.162;2022-11-12T02:33:17;28.92;;;13.80;;
44885;SDS011;36669;51.428;21.162;2022-11-12T02:35:43;26.77;;;13.70;;
44885;SDS011;36669;51.428;21.162;2022-11-12T02:38:08;27.75;;;14.25;;
44885;SDS011;36669;51.428;21.162;2022-11-12T02:40:34;26.38;;;14.50;;
44885;SDS011;36669;51.428;21.162;2022-11-12T02:43:01;28.73;;;14.40;;
44885;SDS011;36669;51.428;21.162;2022-11-12T02:45:27;27.17;;;14.98;;
44885;SDS011;36669;51.428;21.162;2022-11-12T02:47:53;27.90;;;13.93;;
44885;SDS011;36669;51.428;21.162;2022-11-12T02:50:18;31.67;;;14.38;;
44885;SDS011;36669;51.428;21.162;2022-11-12T02:52:44;24.90;;;13.77;;
44885;SDS011;36669;51.428;21.162;2022-11-12T02:55:10;26.40;;;14.40;;
44885;SDS011;36669;51.428;21.162;2022-11-12T02:57:36;24.45;;;13.77;;
44885;SDS011;36669;51.428;21.162;2022-11-12T03:00:03;29.15;;;14.20;;
44885;SDS011;36669;51.428;21.162;2022-11-12T03:02:33;31.95;;;12.55;;
44885;SDS011;36669;51.428;21.162;2022-11-12T03:04:58;26.15;;;14.30;;
44885;SDS011;36669;51.428;21.162;2022-11-12T03:07:24;23.35;;;13.55;;
44885;SDS011;36669;51.428;21.162;2022-11-12T03:09:50;26.98;;;13.55;;
44885;SDS011;36669;51.428;21.162;2022-11-12T03:12:15;25.73;;;14.15;;
44885;SDS011;36669;51.428;21.162;2022-11-12T03:14:42;30.23;;;14.45;;
44885;SDS011;36669;51.428;21.162;2022-11-12T03:17:08;28.77;;;13.75;;
44885;SDS011;36669;51.428;21.162;2022-11-12T03:19:33;29.63;;;14.80;;
44885;SDS011;36669;51.428;21.162;2022-11-12T03:21:59;23.55;;;13.32;;
44885;SDS011;36669;51.428;21.162;2022-11-12T03:24:24;26.17;;;12.90;;
44885;SDS011;36669;51.428;21.162;2022-11-12T03:26:50;21.83;;;12.43;;
44885;SDS011;36669;51.428;21.162;2022-11-12T03:29:15;20.23;;;12.27;;
44885;SDS011;36669;51.428;21.162;2022-11-12T03:31:41;27.00;;;13.43;;
44885;SDS011;36669;51.428;21.162;2022-11-12T03:34:06;22.02;;;12.02;;
44885;SDS011;36669;51.428;21.162;2022-11-12T03:36:32;23.00;;;12.82;;
44885;SDS011;36669;51.428;21.162;2022-11-12T03:38:57;25.10;;;12.93;;
44885;SDS011;36669;51.428;21.162;2022-11-12T03:41:23;22.45;;;11.68;;
44885;SDS011;36669;51.428;21.162;2022-11-12T03:43:48;21.60;;;12.13;;
44885;SDS011;36669;51.428;21.162;2022-11-12T03:46:14;22.73;;;12.00;;
44885;SDS011;36669;51.428;21.162;2022-11-12T03:48:40;24.88;;;12.65;;
44885;SDS011;36669;51.428;21.162;2022-11-12T03:51:05;25.33;;;12.00;;
44885;SDS011;36669;51.428;21.162;2022-11-12T03:53:31;18.05;;;11.95;;
44885;SDS011;36669;51.428;21.162;2022-11-12T03:55:56;21.38;;;11.85;;
44885;SDS011;36669;51.428;21.162;2022-11-12T03:58:22;22.58;;;12.02;;
44885;SDS011;36669;51.428;21.162;2022-11-12T04:00:47;26.40;;;12.32;;
44885;SDS011;36669;51.428;21.162;2022-11-12T04:03:14;24.65;;;12.77;;
44885;SDS011;36669;51.428;21.162;2022-11-12T04:05:40;22.30;;;11.50;;
44885;SDS011;36669;51.428;21.162;2022-11-12T04:08:17;26.67;;;13.65;;
44885;SDS011;36669;51.428;21.162;2022-11-12T04:10:44;26.20;;;13.25;;
44885;SDS011;36669;51.428;21.162;2022-11-12T04:13:10;28.45;;;14.52;;
44885;SDS011;36669;51.428;21.162;2022-11-12T04:15:35;27.15;;;13.68;;
44885;SDS011;36669;51.428;21.162;2022-11-12T04:18:01;31.55;;;13.38;;
44885;SDS011;36669;51.428;21.162;2022-11-12T04:20:27;27.48;;;12.75;;
44885;SDS011;36669;51.428;21.162;2022-11-12T04:22:53;29.20;;;13.13;;
44885;SDS011;36669;51.428;21.162;2022-11-12T04:25:18;26.30;;;13.38;;
44885;SDS011;36669;51.428;21.162;2022-11-12T04:27:44;23.92;;;12.63;;
44885;SDS011;36669;51.428;21.162;2022-11-12T04:30:09;22.15;;;12.10;;
44885;SDS011;36669;51.428;21.162;2022-11-12T04:32:39;21.08;;;13.18;;
44885;SDS011;36669;51.428;21.162;2022-11-12T04:35:10;27.00;;;13.13;;
44885;SDS011;36669;51.428;21.162;2022-11-12T04:37:36;24.48;;;13.35;;
44885;SDS011;36669;51.428;21.162;2022-11-12T04:40:02;21.50;;;13.00;;
44885;SDS011;36669;51.428;21.162;2022-11-12T04:42:27;26.38;;;14.05;;
44885;SDS011;36669;51.428;21.162;2022-11-12T04:44:53;23.23;;;13.55;;
44885;SDS011;36669;51.428;21.162;2022-11-12T04:47:19;25.63;;;13.77;;
44885;SDS011;36669;51.428;21.162;2022-11-12T04:49:44;32.42;;;13.73;;
44885;SDS011;36669;51.428;21.162;2022-11-12T04:52:10;25.33;;;14.10;;
44885;SDS011;36669;51.428;21.162;2022-11-12T04:54:35;28.23;;;14.10;;
44885;SDS011;36669;51.428;21.162;2022-11-12T04:57:02;28.83;;;15.25;;
44885;SDS011;36669;51.428;21.162;2022-11-12T04:59:28;25.80;;;14.13;;
44885;SDS011;36669;51.428;21.162;2022-11-12T05:01:53;26.85;;;15.18;;
44885;SDS011;36669;51.428;21.162;2022-11-12T05:04:19;32.25;;;14.23;;
44885;SDS011;36669;51.428;21.162;2022-11-12T05:06:45;26.73;;;14.38;;
44885;SDS011;36669;51.428;21.162;2022-11-12T05:09:10;28.42;;;14.38;;
44885;SDS011;36669;51.428;21.162;2022-11-12T05:11:36;24.25;;;12.15;;
44885;SDS011;36669;51.428;21.162;2022-11-12T05:14:01;24.50;;;12.00;;
44885;SDS011;36669;51.428;21.162;2022-11-12T05:16:27;25.75;;;13.32;;
44885;SDS011;36669;51.428;21.162;2022-11-12T05:18:52;26.02;;;12.75;;
44885;SDS011;36669;51.428;21.162;2022-11-12T05:21:18;27.25;;;12.93;;
44885;SDS011;36669;51.428;21.162;2022-11-12T05:23:43;23.15;;;12.25;;
44885;SDS011;36669;51.428;21.162;2022-11-12T05:26:10;25.02;;;12.10;;
44885;SDS011;36669;51.428;21.162;2022-11-12T05:28:36;24.58;;;11.63;;
44885;SDS011;36669;51.428;21.162;2022-11-12T05:31:01;26.98;;;14.48;;
44885;SDS011;36669;51.428;21.162;2022-11-12T05:33:27;31.70;;;14.25;;
44885;SDS011;36669;51.428;21.162;2022-11-12T05:35:54;32.00;;;13.98;;
44885;SDS011;36669;51.428;21.162;2022-11-12T05:38:20;30.52;;;12.70;;
44885;SDS011;36669;51.428;21.162;2022-11-12T05:40:46;31.10;;;13.98;;
44885;SDS011;36669;51.428;21.162;2022-11-12T05:43:11;24.95;;;12.75;;
44885;SDS011;36669;51.428;21.162;2022-11-12T05:45:37;23.58;;;11.77;;
44885;SDS011;36669;51.428;21.162;2022-11-12T05:48:06;29.85;;;13.65;;
44885;SDS011;36669;51.428;21.162;2022-11-12T05:50:31;27.15;;;13.52;;
44885;SDS011;36669;51.428;21.162;2022-11-12T05:52:57;25.83;;;14.05;;
44885;SDS011;36669;51.428;21.162;2022-11-12T05:55:22;27.27;;;12.90;;
44885;SDS011;36669;51.428;21.162;2022-11-12T05:57:48;27.83;;;14.48;;
44885;SDS011;36669;51.428;21.162;2022-11-12T06:00:13;32.15;;;13.38;;
44885;SDS011;36669;51.428;21.162;2022-11-12T06:02:39;29.85;;;14.10;;
44885;SDS011;36669;51.428;21.162;2022-11-12T06:05:05;28.30;;;14.50;;
44885;SDS011;36669;51.428;21.162;2022-11-12T06:07:30;27.52;;;13.38;;
44885;SDS011;36669;51.428;21.162;2022-11-12T06:09:56;28.42;;;13.60;;
44885;SDS011;36669;51.428;21.162;2022-11-12T06:12:21;26.42;;;13.40;;
44885;SDS011;36669;51.428;21.162;2022-11-12T06:14:47;32.90;;;14.10;;
44885;SDS011;36669;51.428;21.162;2022-11-12T06:17:12;30.98;;;13.80;;
44885;SDS011;36669;51.428;21.162;2022-11-12T06:19:38;30.15;;;13.98;;
44885;SDS011;36669;51.428;21.162;2022-11-12T06:22:04;31.83;;;14.20;;
44885;SDS011;36669;51.428;21.162;2022-11-12T06:24:30;30.23;;;15.05;;
44885;SDS011;36669;51.428;21.162;2022-11-12T06:26:55;33.53;;;13.98;;
44885;SDS011;36669;51.428;21.162;2022-11-12T06:29:21;28.58;;;13.57;;
44885;SDS011;36669;51.428;21.162;2022-11-12T06:31:46;26.92;;;12.85;;
44885;SDS011;36669;51.428;21.162;2022-11-12T06:34:12;28.55;;;14.13;;
44885;SDS011;36669;51.428;21.162;2022-11-12T06:36:37;24.77;;;13.57;;
44885;SDS011;36669;51.428;21.162;2022-11-12T06:39:03;24.77;;;12.57;;
44885;SDS011;36669;51.428;21.162;2022-11-12T06:41:29;26.25;;;12.85;;
44885;SDS011;36669;51.428;21.162;2022-11-12T06:43:55;27.08;;;14.38;;
44885;SDS011;36669;51.428;21.162;2022-11-12T06:46:21;27.17;;;14.32;;
44885;SDS011;36669;51.428;21.162;2022-11-12T06:48:47;30.00;;;13.57;;
44885;SDS011;36669;51.428;21.162;2022-11-12T06:51:16;25.98;;;13.38;;
44885;SDS011;36669;51.428;21.162;2022-11-12T06:53:43;34.67;;;15.63;;
44885;SDS011;36669;51.428;21.162;2022-11-12T06:56:09;26.25;;;14.93;;
44885;SDS011;36669;51.428;21.162;2022-11-12T06:58:35;32.28;;;13.85;;
44885;SDS011;36669;51.428;21.162;2022-11-12T07:01:04;29.08;;;15.45;;
44885;SDS011;36669;51.428;21.162;2022-11-12T07:06:07;26.65;;;13.70;;
44885;SDS011;36669;51.428;21.162;2022-11-12T07:08:37;26.42;;;14.30;;
44885;SDS011;36669;51.428;21.162;2022-11-12T07:11:03;32.47;;;14.75;;
44885;SDS011;36669;51.428;21.162;2022-11-12T07:13:31;28.67;;;14.30;;
44885;SDS011;36669;51.428;21.162;2022-11-12T07:15:58;26.70;;;14.43;;
44885;SDS011;36669;51.428;21.162;2022-11-12T07:18:25;31.05;;;12.70;;
44885;SDS011;36669;51.428;21.162;2022-11-12T07:20:55;31.98;;;15.75;;
44885;SDS011;36669;51.428;21.162;2022-11-12T07:23:25;27.25;;;11.80;;
44885;SDS011;36669;51.428;21.162;2022-11-12T07:25:55;27.50;;;15.07;;
44885;SDS011;36669;51.428;21.162;2022-11-12T07:28:26;32.15;;;14.85;;
44885;SDS011;36669;51.428;21.162;2022-11-12T07:31:02;27.67;;;16.67;;
44885;SDS011;36669;51.428;21.162;2022-11-12T07:33:31;28.17;;;15.32;;
44885;SDS011;36669;51.428;21.162;2022-11-12T07:35:57;24.58;;;13.25;;
44885;SDS011;36669;51.428;21.162;2022-11-12T07:38:25;31.83;;;13.68;;
44885;SDS011;36669;51.428;21.162;2022-11-12T07:40:51;29.98;;;15.98;;
44885;SDS011;36669;51.428;21.162;2022-11-12T07:43:23;29.00;;;13.10;;
44885;SDS011;36669;51.428;21.162;2022-11-12T07:45:48;30.05;;;15.48;;
44885;SDS011;36669;51.428;21.162;2022-11-12T07:48:14;30.08;;;14.50;;
44885;SDS011;36669;51.428;21.162;2022-11-12T07:50:39;30.92;;;16.17;;
44885;SDS011;36669;51.428;21.162;2022-11-12T07:53:05;26.40;;;13.88;;
44885;SDS011;36669;51.428;21.162;2022-11-12T07:55:30;29.58;;;14.07;;
44885;SDS011;36669;51.428;21.162;2022-11-12T07:57:57;25.80;;;13.40;;
44885;SDS011;36669;51.428;21.162;2022-11-12T08:00:23;26.48;;;13.80;;
44885;SDS011;36669;51.428;21.162;2022-11-12T08:02:49;27.88;;;15.18;;
44885;SDS011;36669;51.428;21.162;2022-11-12T08:05:14;26.52;;;14.63;;
44885;SDS011;36669;51.428;21.162;2022-11-12T08:07:40;32.20;;;15.13;;
44885;SDS011;36669;51.428;21.162;2022-11-12T08:10:06;30.33;;;15.35;;
44885;SDS011;36669;51.428;21.162;2022-11-12T08:12:32;73.40;;;14.85;;
44885;SDS011;36669;51.428;21.162;2022-11-12T08:14:57;32.85;;;14.13;;
44885;SDS011;36669;51.428;21.162;2022-11-12T08:17:23;32.95;;;16.63;;
44885;SDS011;36669;51.428;21.162;2022-11-12T08:19:48;30.15;;;14.65;;
44885;SDS011;36669;51.428;21.162;2022-11-12T08:22:14;30.38;;;16.27;;
44885;SDS011;36669;51.428;21.162;2022-11-12T08:24:39;27.23;;;14.85;;
44885;SDS011;36669;51.428;21.162;2022-11-12T08:27:05;21.92;;;11.88;;
44885;SDS011;36669;51.428;21.162;2022-11-12T08:29:30;31.17;;;14.40;;
44885;SDS011;36669;51.428;21.162;2022-11-12T08:31:56;30.20;;;13.52;;
44885;SDS011;36669;51.428;21.162;2022-11-12T08:34:21;29.48;;;13.82;;
44885;SDS011;36669;51.428;21.162;2022-11-12T08:36:47;26.45;;;12.15;;
44885;SDS011;36669;51.428;21.162;2022-11-12T08:39:12;32.95;;;15.05;;
44885;SDS011;36669;51.428;21.162;2022-11-12T08:41:38;23.85;;;10.63;;
44885;SDS011;36669;51.428;21.162;2022-11-12T08:44:03;32.53;;;12.90;;
44885;SDS011;36669;51.428;21.162;2022-11-12T08:46:29;28.45;;;14.18;;
44885;SDS011;36669;51.428;21.162;2022-11-12T08:48:55;28.88;;;14.27;;
44885;SDS011;36669;51.428;21.162;2022-11-12T08:51:20;19.83;;;10.25;;
44885;SDS011;36669;51.428;21.162;2022-11-12T08:53:46;25.63;;;11.48;;
44885;SDS011;36669;51.428;21.162;2022-11-12T08:56:11;17.85;;;7.70;;
44885;SDS011;36669;51.428;21.162;2022-11-12T08:58:37;19.45;;;9.13;;
44885;SDS011;36669;51.428;21.162;2022-11-12T09:01:06;17.25;;;9.35;;
44885;SDS011;36669;51.428;21.162;2022-11-12T09:03:32;22.55;;;11.65;;
44885;SDS011;36669;51.428;21.162;2022-11-12T09:06:01;22.13;;;10.55;;
44885;SDS011;36669;51.428;21.162;2022-11-12T09:08:28;18.15;;;10.27;;
44885;SDS011;36669;51.428;21.162;2022-11-12T09:10:56;21.65;;;10.18;;
44885;SDS011;36669;51.428;21.162;2022-11-12T09:13:22;22.63;;;11.07;;
44885;SDS011;36669;51.428;21.162;2022-11-12T09:15:47;23.00;;;11.93;;
44885;SDS011;36669;51.428;21.162;2022-11-12T09:18:14;18.17;;;10.00;;
44885;SDS011;36669;51.428;21.162;2022-11-12T09:20:41;25.27;;;12.95;;
44885;SDS011;36669;51.428;21.162;2022-11-12T09:23:11;25.88;;;13.25;;
44885;SDS011;36669;51.428;21.162;2022-11-12T09:25:38;21.77;;;11.38;;
44885;SDS011;36669;51.428;21.162;2022-11-12T09:28:05;20.10;;;9.73;;
44885;SDS011;36669;51.428;21.162;2022-11-12T09:33:08;22.80;;;11.85;;
44885;SDS011;36669;51.428;21.162;2022-11-12T09:35:33;20.83;;;10.25;;
44885;SDS011;36669;51.428;21.162;2022-11-12T09:37:59;23.17;;;13.55;;
44885;SDS011;36669;51.428;21.162;2022-11-12T09:43:58;20.55;;;12.95;;
44885;SDS011;36669;51.428;21.162;2022-11-12T09:48:52;23.65;;;11.75;;
44885;SDS011;36669;51.428;21.162;2022-11-12T09:51:31;20.08;;;10.32;;
44885;SDS011;36669;51.428;21.162;2022-11-12T09:54:00;21.15;;;12.73;;
44885;SDS011;36669;51.428;21.162;2022-11-12T09:56:48;18.88;;;12.48;;
44885;SDS011;36669;51.428;21.162;2022-11-12T09:59:14;18.75;;;11.35;;
44885;SDS011;36669;51.428;21.162;2022-11-12T10:05:40;17.95;;;10.93;;
44885;SDS011;36669;51.428;21.162;2022-11-12T10:18:05;23.98;;;14.95;;
44885;SDS011;36669;51.428;21.162;2022-11-12T10:20:47;29.33;;;16.90;;
44885;SDS011;36669;51.428;21.162;2022-11-12T10:23:31;27.50;;;16.77;;
44885;SDS011;36669;51.428;21.162;2022-11-12T10:26:10;27.95;;;16.52;;
44885;SDS011;36669;51.428;21.162;2022-11-12T10:28:39;23.40;;;12.27;;
44885;SDS011;36669;51.428;21.162;2022-11-12T10:31:10;24.10;;;13.05;;
44885;SDS011;36669;51.428;21.162;2022-11-12T10:33:37;23.33;;;12.70;;
44885;SDS011;36669;51.428;21.162;2022-11-12T10:36:17;23.85;;;13.98;;
44885;SDS011;36669;51.428;21.162;2022-11-12T10:38:44;27.30;;;16.15;;
44885;SDS011;36669;51.428;21.162;2022-11-12T10:41:33;26.92;;;15.05;;
44885;SDS011;36669;51.428;21.162;2022-11-12T10:44:03;25.23;;;14.18;;
44885;SDS011;36669;51.428;21.162;2022-11-12T10:46:31;26.80;;;13.15;;
44885;SDS011;36669;51.428;21.162;2022-11-12T10:49:03;29.08;;;14.40;;
44885;SDS011;36669;51.428;21.162;2022-11-12T10:51:38;27.42;;;16.92;;
44885;SDS011;36669;51.428;21.162;2022-11-12T10:56:51;24.92;;;12.32;;
44885;SDS011;36669;51.428;21.162;2022-11-12T11:01:54;31.83;;;17.23;;
44885;SDS011;36669;51.428;21.162;2022-11-12T11:07:02;30.13;;;18.15;;
44885;SDS011;36669;51.428;21.162;2022-11-12T11:09:31;29.92;;;16.92;;
44885;SDS011;36669;51.428;21.162;2022-11-12T11:11:58;29.83;;;16.70;;
44885;SDS011;36669;51.428;21.162;2022-11-12T11:14:25;26.67;;;15.27;;
44885;SDS011;36669;51.428;21.162;2022-11-12T11:16:55;37.17;;;21.15;;
44885;SDS011;36669;51.428;21.162;2022-11-12T11:19:35;30.52;;;13.95;;
44885;SDS011;36669;51.428;21.162;2022-11-12T11:22:27;37.67;;;18.70;;
44885;SDS011;36669;51.428;21.162;2022-11-12T11:27:34;38.13;;;20.27;;
44885;SDS011;36669;51.428;21.162;2022-11-12T11:30:11;36.83;;;19.55;;
44885;SDS011;36669;51.428;21.162;2022-11-12T11:32:56;35.45;;;19.60;;
44885;SDS011;36669;51.428;21.162;2022-11-12T11:35:38;35.58;;;20.63;;
44885;SDS011;36669;51.428;21.162;2022-11-12T11:39:08;42.00;;;21.58;;
44885;SDS011;36669;51.428;21.162;2022-11-12T11:46:28;34.00;;;18.38;;
44885;SDS011;36669;51.428;21.162;2022-11-12T11:49:14;41.90;;;24.55;;
44885;SDS011;36669;51.428;21.162;2022-11-12T12:05:30;46.55;;;24.42;;
44885;SDS011;36669;51.428;21.162;2022-11-12T12:08:12;44.45;;;23.65;;
44885;SDS011;36669;51.428;21.162;2022-11-12T12:21:29;40.67;;;20.52;;
44885;SDS011;36669;51.428;21.162;2022-11-12T12:23:59;44.58;;;24.15;;
44885;SDS011;36669;51.428;21.162;2022-11-12T12:26:30;35.00;;;16.80;;
44885;SDS011;36669;51.428;21.162;2022-11-12T12:29:23;42.95;;;20.77;;
44885;SDS011;36669;51.428;21.162;2022-11-12T12:32:11;49.08;;;23.98;;
44885;SDS011;36669;51.428;21.162;2022-11-12T12:34:41;34.72;;;18.00;;
44885;SDS011;36669;51.428;21.162;2022-11-12T12:37:13;44.63;;;24.45;;
44885;SDS011;36669;51.428;21.162;2022-11-12T12:40:16;55.50;;;28.30;;
44885;SDS011;36669;51.428;21.162;2022-11-12T12:45:37;46.72;;;24.58;;
44885;SDS011;36669;51.428;21.162;2022-11-12T12:48:06;39.88;;;18.13;;
44885;SDS011;36669;51.428;21.162;2022-11-12T12:50:46;48.67;;;25.00;;
44885;SDS011;36669;51.428;21.162;2022-11-12T12:53:15;54.67;;;27.92;;
44885;SDS011;36669;51.428;21.162;2022-11-12T12:55:41;56.55;;;27.48;;
44885;SDS011;36669;51.428;21.162;2022-11-12T12:58:43;49.60;;;24.55;;
44885;SDS011;36669;51.428;21.162;2022-11-12T13:01:34;48.72;;;24.63;;
44885;SDS011;36669;51.428;21.162;2022-11-12T13:06:38;50.90;;;24.35;;
44885;SDS011;36669;51.428;21.162;2022-11-12T13:22:52;40.25;;;22.45;;
44885;SDS011;36669;51.428;21.162;2022-11-12T13:40:41;45.47;;;25.08;;
44885;SDS011;36669;51.428;21.162;2022-11-12T13:43:35;41.05;;;21.80;;
44885;SDS011;36669;51.428;21.162;2022-11-12T13:48:48;50.75;;;26.15;;
44885;SDS011;36669;51.428;21.162;2022-11-12T13:54:00;43.15;;;22.73;;
44885;SDS011;36669;51.428;21.162;2022-11-12T13:56:33;37.45;;;19.83;;
44885;SDS011;36669;51.428;21.162;2022-11-12T14:01:41;44.03;;;24.83;;
44885;SDS011;36669;51.428;21.162;2022-11-12T14:04:12;47.20;;;24.15;;
44885;SDS011;36669;51.428;21.162;2022-11-12T14:06:41;50.55;;;27.65;;
44885;SDS011;36669;51.428;21.162;2022-11-12T14:14:45;46.83;;;26.02;;
44885;SDS011;36669;51.428;21.162;2022-11-12T14:23:34;48.60;;;27.45;;
44885;SDS011;36669;51.428;21.162;2022-11-12T14:25:53;46.25;;;26.83;;
44885;SDS011;36669;51.428;21.162;2022-11-12T14:28:30;45.47;;;23.08;;
44885;SDS011;36669;51.428;21.162;2022-11-12T14:30:57;45.22;;;23.35;;
44885;SDS011;36669;51.428;21.162;2022-11-12T14:33:25;45.35;;;26.65;;
44885;SDS011;36669;51.428;21.162;2022-11-12T14:35:53;49.58;;;25.58;;
44885;SDS011;36669;51.428;21.162;2022-11-12T14:38:31;46.17;;;26.38;;
44885;SDS011;36669;51.428;21.162;2022-11-12T14:41:15;45.50;;;26.67;;
44885;SDS011;36669;51.428;21.162;2022-11-12T14:44:01;49.17;;;27.42;;
44885;SDS011;36669;51.428;21.162;2022-11-12T14:49:31;54.00;;;29.83;;
44885;SDS011;36669;51.428;21.162;2022-11-12T14:52:08;55.45;;;28.70;;
44885;SDS011;36669;51.428;21.162;2022-11-12T14:54:40;57.58;;;30.13;;
44885;SDS011;36669;51.428;21.162;2022-11-12T14:57:19;58.75;;;30.88;;
44885;SDS011;36669;51.428;21.162;2022-11-12T14:59:51;49.28;;;30.10;;
44885;SDS011;36669;51.428;21.162;2022-11-12T15:02:30;54.95;;;30.08;;
44885;SDS011;36669;51.428;21.162;2022-11-12T15:05:15;58.13;;;30.58;;
44885;SDS011;36669;51.428;21.162;2022-11-12T15:07:56;53.00;;;29.60;;
44885;SDS011;36669;51.428;21.162;2022-11-12T15:13:08;55.92;;;30.25;;
44885;SDS011;36669;51.428;21.162;2022-11-12T15:15:37;57.97;;;30.48;;
44885;SDS011;36669;51.428;21.162;2022-11-12T15:18:25;59.03;;;30.85;;
44885;SDS011;36669;51.428;21.162;2022-11-12T15:26:22;54.30;;;30.65;;
44885;SDS011;36669;51.428;21.162;2022-11-12T15:29:22;68.25;;;34.00;;
44885;SDS011;36669;51.428;21.162;2022-11-12T15:31:50;67.03;;;34.63;;
44885;SDS011;36669;51.428;21.162;2022-11-12T15:35:02;63.53;;;36.28;;
44885;SDS011;36669;51.428;21.162;2022-11-12T15:37:24;64.05;;;33.88;;
44885;SDS011;36669;51.428;21.162;2022-11-12T15:39:57;64.57;;;34.55;;
44885;SDS011;36669;51.428;21.162;2022-11-12T15:42:37;73.47;;;35.40;;
44885;SDS011;36669;51.428;21.162;2022-11-12T15:45:09;68.45;;;35.10;;
44885;SDS011;36669;51.428;21.162;2022-11-12T15:47:39;56.92;;;28.65;;
44885;SDS011;36669;51.428;21.162;2022-11-12T15:50:23;66.72;;;35.28;;
44885;SDS011;36669;51.428;21.162;2022-11-12T15:52:49;65.82;;;32.80;;
44885;SDS011;36669;51.428;21.162;2022-11-12T15:55:15;69.90;;;35.38;;
44885;SDS011;36669;51.428;21.162;2022-11-12T15:57:43;62.22;;;32.28;;
44885;SDS011;36669;51.428;21.162;2022-11-12T16:02:45;58.00;;;32.03;;
44885;SDS011;36669;51.428;21.162;2022-11-12T16:05:16;59.53;;;32.65;;
44885;SDS011;36669;51.428;21.162;2022-11-12T16:07:42;64.10;;;33.47;;
44885;SDS011;36669;51.428;21.162;2022-11-12T16:10:12;61.25;;;34.70;;
44885;SDS011;36669;51.428;21.162;2022-11-12T16:12:39;57.25;;;31.08;;
44885;SDS011;36669;51.428;21.162;2022-11-12T16:15:11;62.92;;;33.83;;
44885;SDS011;36669;51.428;21.162;2022-11-12T16:17:41;66.45;;;33.40;;
44885;SDS011;36669;51.428;21.162;2022-11-12T16:20:17;62.17;;;32.58;;
44885;SDS011;36669;51.428;21.162;2022-11-12T16:22:44;68.57;;;33.05;;
44885;SDS011;36669;51.428;21.162;2022-11-12T16:25:09;75.05;;;36.45;;
44885;SDS011;36669;51.428;21.162;2022-11-12T16:27:36;65.82;;;37.40;;
44885;SDS011;36669;51.428;21.162;2022-11-12T16:30:03;72.75;;;38.00;;
44885;SDS011;36669;51.428;21.162;2022-11-12T16:32:30;69.70;;;38.00;;